createdAt,value
2018-01-06T00:02:15.556Z,0.60
2018-01-06T00:06:58.207Z,0.43
2018-01-06T00:11:40.750Z,0.43
2018-01-06T00:16:23.469Z,0.90
2018-01-06T00:21:07.068Z,0.57
2018-01-06T00:25:50.359Z,0.67
2018-01-06T00:30:32.931Z,0.60
2018-01-06T00:35:15.607Z,0.67
2018-01-06T00:39:58.257Z,0.63
2018-01-06T00:44:40.888Z,0.40
2018-01-06T00:49:23.471Z,0.50
2018-01-06T00:54:07.002Z,0.80
2018-01-06T00:58:50.365Z,0.63
2018-01-06T01:03:33.132Z,0.73
2018-01-06T01:08:15.724Z,0.63
2018-01-06T01:12:58.955Z,0.70
2018-01-06T01:17:41.531Z,0.63
2018-01-06T01:22:24.212Z,0.70
2018-01-06T01:27:06.839Z,0.53
2018-01-06T01:31:49.435Z,0.57
2018-01-06T01:36:32.078Z,0.90
2018-01-06T01:41:14.671Z,0.50
2018-01-06T01:45:57.852Z,0.53
2018-01-06T01:50:40.401Z,0.60
2018-01-06T01:55:23.007Z,0.60
2018-01-06T02:00:09.417Z,1.00
2018-01-06T02:04:52.140Z,1.07
2018-01-06T02:09:34.661Z,1.00
2018-01-06T02:14:17.377Z,1.00
2018-01-06T02:18:59.898Z,1.30
2018-01-06T02:23:42.524Z,1.40
2018-01-06T02:28:25.089Z,1.23
2018-01-06T02:33:07.737Z,1.53
2018-01-06T02:37:50.465Z,1.30
2018-01-06T02:42:33.056Z,1.60
2018-01-06T02:47:15.568Z,1.33
2018-01-06T02:51:58.893Z,2.07
2018-01-06T02:56:41.401Z,1.50
2018-01-06T03:01:24.008Z,1.57
2018-01-06T03:06:06.756Z,1.33
2018-01-06T03:10:49.367Z,1.40
2018-01-06T03:15:31.943Z,1.63
2018-01-06T03:20:14.596Z,1.27
2018-01-06T03:24:57.266Z,1.53
2018-01-06T03:29:39.946Z,1.50
2018-01-06T03:34:22.506Z,1.80
2018-01-06T03:39:07.065Z,1.37
2018-01-06T03:43:50.432Z,1.50
2018-01-06T03:48:32.923Z,1.50
2018-01-06T03:53:15.566Z,1.23
2018-01-06T03:57:58.260Z,1.20
2018-01-06T04:02:40.787Z,1.87
2018-01-06T04:07:23.363Z,1.40
2018-01-06T04:12:06.979Z,1.60
2018-01-06T04:16:50.319Z,1.30
2018-01-06T04:21:33.588Z,1.90
2018-01-06T04:26:16.165Z,1.27
2018-01-06T04:30:58.727Z,1.63
2018-01-06T04:35:42.047Z,1.60
2018-01-06T04:40:24.535Z,1.83
2018-01-06T04:45:08.697Z,1.70
2018-01-06T04:49:51.404Z,1.57
2018-01-06T04:54:33.965Z,1.73
2018-01-06T04:59:16.578Z,1.70
2018-01-06T05:03:59.140Z,1.83
2018-01-06T05:08:42.492Z,1.57
2018-01-06T05:13:25.095Z,1.53
2018-01-06T05:18:07.728Z,2.00
2018-01-06T05:22:50.360Z,2.10
2018-01-06T05:27:32.970Z,2.10
2018-01-06T05:32:15.646Z,1.80
2018-01-06T05:36:59.000Z,1.57
2018-01-06T05:41:41.533Z,1.70
2018-01-06T05:46:24.015Z,2.03
2018-01-06T05:51:06.736Z,1.80
2018-01-06T05:55:49.383Z,1.87
2018-01-06T06:00:32.085Z,1.87
2018-01-06T06:05:14.737Z,1.80
2018-01-06T06:09:57.327Z,1.90
2018-01-06T06:14:39.906Z,1.80
2018-01-06T06:19:23.260Z,1.77
2018-01-06T06:24:06.788Z,1.87
2018-01-06T06:28:49.398Z,2.07
2018-01-06T06:33:31.997Z,2.03
2018-01-06T06:38:14.511Z,1.97
2018-01-06T06:42:58.059Z,1.93
2018-01-06T06:47:40.648Z,1.93
2018-01-06T06:52:25.989Z,2.20
2018-01-06T06:57:09.649Z,1.80
2018-01-06T07:01:53.080Z,1.63
2018-01-06T07:06:35.725Z,1.73
2018-01-06T07:11:18.407Z,2.00
2018-01-06T07:16:01.112Z,2.10
2018-01-06T07:20:46.650Z,1.80
2018-01-06T07:25:31.918Z,2.20
2018-01-06T07:30:14.470Z,2.00
2018-01-06T07:34:57.088Z,1.80
2018-01-06T07:39:39.693Z,1.47
2018-01-06T07:44:23.309Z,1.73
2018-01-06T07:49:05.988Z,2.37
2018-01-06T07:53:48.638Z,1.70
2018-01-06T07:58:31.155Z,2.20
2018-01-06T08:03:13.732Z,2.70
2018-01-06T08:07:57.119Z,2.97
2018-01-06T08:12:39.676Z,2.23
2018-01-06T08:17:22.199Z,2.20
2018-01-06T08:22:09.536Z,2.10
2018-01-06T08:26:52.527Z,2.00
2018-01-06T08:31:38.251Z,1.97
2018-01-06T08:36:21.460Z,2.10
2018-01-06T08:41:05.644Z,2.50
2018-01-06T08:45:49.088Z,1.97
2018-01-06T08:50:33.065Z,2.10
2018-01-06T08:55:17.184Z,1.93
2018-01-06T09:00:00.014Z,2.00
2018-01-06T09:04:44.834Z,1.87
2018-01-06T09:09:27.760Z,2.50
2018-01-06T09:14:10.448Z,1.77
2018-01-06T09:18:53.059Z,1.60
2018-01-06T09:23:36.492Z,1.83
2018-01-06T09:28:19.011Z,2.10
2018-01-06T09:33:05.847Z,1.80
2018-01-06T09:37:49.277Z,3.00
2018-01-06T09:42:31.935Z,2.90
2018-01-06T09:47:14.568Z,3.07
2018-01-06T09:51:57.200Z,3.30
2018-01-06T09:56:40.548Z,2.70
2018-01-06T10:01:23.216Z,2.47
2018-01-06T10:06:05.938Z,3.07
2018-01-06T10:10:48.609Z,3.87
2018-01-06T10:15:31.301Z,4.57
2018-01-06T10:20:13.924Z,3.97
2018-01-06T10:24:56.463Z,3.27
2018-01-06T10:29:39.130Z,2.53
2018-01-06T10:34:22.607Z,1.97
2018-01-06T10:39:06.392Z,2.20
2018-01-06T10:43:53.264Z,2.80
2018-01-06T10:48:36.672Z,2.40
2018-01-06T10:53:23.468Z,2.53
2018-01-06T10:58:06.169Z,1.70
2018-01-06T11:02:51.655Z,1.80
2018-01-06T11:07:35.996Z,2.00
2018-01-06T11:12:19.373Z,2.07
2018-01-06T11:17:05.012Z,1.80
2018-01-06T11:21:49.098Z,1.70
2018-01-06T11:26:31.760Z,1.60
2018-01-06T11:31:15.690Z,1.77
2018-01-06T11:35:58.446Z,1.70
2018-01-06T11:40:42.903Z,2.80
2018-01-06T11:45:26.354Z,2.57
2018-01-06T11:50:09.034Z,2.00
2018-01-06T11:54:51.963Z,2.07
2018-01-06T11:59:34.757Z,2.83
2018-01-06T12:04:17.557Z,2.40
2018-01-06T12:09:06.944Z,2.50
2018-01-06T12:13:50.286Z,2.50
2018-01-06T12:18:33.708Z,2.60
2018-01-06T12:23:16.398Z,2.57
2018-01-06T12:27:59.039Z,2.37
2018-01-06T12:32:41.626Z,2.50
2018-01-06T12:37:24.454Z,3.00
2018-01-06T12:42:07.073Z,2.10
2018-01-06T12:46:50.742Z,2.33
2018-01-06T12:51:33.693Z,2.17
2018-01-06T12:56:17.073Z,2.67
2018-01-06T13:01:00.047Z,2.67
2018-01-06T13:05:46.936Z,5.30
2018-01-06T13:10:31.191Z,4.80
2018-01-06T13:15:14.589Z,4.93
2018-01-06T13:19:57.755Z,4.70
2018-01-06T13:24:41.031Z,5.00
2018-01-06T13:29:23.921Z,4.03
2018-01-06T13:34:06.888Z,3.93
2018-01-06T13:38:50.125Z,4.63
2018-01-06T13:43:32.985Z,3.80
2018-01-06T13:48:15.630Z,4.33
2018-01-06T13:52:58.528Z,5.37
2018-01-06T13:57:41.957Z,5.73
2018-01-06T14:02:24.840Z,4.73
2018-01-06T14:07:07.630Z,4.43
2018-01-06T14:11:50.349Z,3.90
2018-01-06T14:16:32.897Z,3.47
2018-01-06T14:21:15.488Z,4.37
2018-01-06T14:25:58.914Z,4.50
2018-01-06T14:30:41.563Z,3.77
2018-01-06T14:35:24.981Z,3.87
2018-01-06T14:40:07.841Z,5.00
2018-01-06T14:44:50.516Z,4.17
2018-01-06T14:49:33.343Z,3.60
2018-01-06T14:54:16.261Z,4.20
2018-01-06T14:58:59.782Z,4.00
2018-01-06T15:03:43.138Z,4.57
2018-01-06T15:08:25.836Z,4.70
2018-01-06T15:13:09.170Z,4.00
2018-01-06T15:17:51.710Z,4.57
2018-01-06T15:22:34.203Z,5.77
2018-01-06T15:27:17.346Z,8.40
2018-01-06T15:31:59.992Z,8.83
2018-01-06T15:36:42.567Z,7.80
2018-01-06T15:41:25.196Z,5.73
2018-01-06T15:46:08.454Z,7.90
2018-01-06T15:50:51.143Z,7.60
2018-01-06T15:55:34.332Z,7.97
2018-01-06T16:00:16.967Z,7.90
2018-01-06T16:04:59.696Z,8.33
2018-01-06T16:09:42.592Z,8.20
2018-01-06T16:14:25.475Z,8.07
2018-01-06T16:19:08.448Z,6.73
2018-01-06T16:23:51.986Z,6.50
2018-01-06T16:28:34.652Z,7.10
2018-01-06T16:33:18.103Z,8.03
2018-01-06T16:38:00.733Z,8.20
2018-01-06T16:42:43.359Z,8.33
2018-01-06T16:47:26.078Z,9.63
2018-01-06T16:52:08.648Z,11.23
2018-01-06T16:56:51.381Z,10.17
2018-01-06T17:01:34.845Z,13.10
2018-01-06T17:06:17.628Z,14.70
2018-01-06T17:11:00.398Z,14.93
2018-01-06T17:15:46.129Z,15.27
2018-01-06T17:20:29.618Z,15.53
2018-01-06T17:25:12.244Z,13.03
2018-01-06T17:29:55.064Z,11.30
2018-01-06T17:34:37.785Z,11.00
2018-01-06T17:39:20.411Z,11.77
2018-01-06T17:44:05.501Z,12.27
2018-01-06T17:48:48.157Z,9.97
2018-01-06T17:53:30.766Z,10.27
2018-01-06T17:58:13.472Z,10.77
2018-01-06T18:02:57.641Z,10.10
2018-01-06T18:07:43.550Z,9.27
2018-01-06T18:12:30.904Z,9.17
2018-01-06T18:22:12.458Z,10.57
2018-01-06T18:26:55.548Z,8.97
2018-01-06T18:31:38.387Z,7.23
2018-01-06T18:36:21.122Z,7.00
